createdAt,value
2023-05-14T00:00:10.798Z,21.50
2023-05-14T00:02:38.587Z,21.98
2023-05-14T00:05:07.268Z,21.65
2023-05-14T00:07:35.174Z,21.67
2023-05-14T00:10:03.009Z,22.00
2023-05-14T00:12:31.099Z,21.99
2023-05-14T00:15:00.754Z,21.68
2023-05-14T00:17:28.697Z,21.62
2023-05-14T00:19:56.561Z,21.84
2023-05-14T00:22:24.360Z,21.92
2023-05-14T00:24:52.104Z,21.97
2023-05-14T00:27:19.993Z,22.41
2023-05-14T00:29:47.948Z,22.17
2023-05-14T00:32:17.105Z,22.64
2023-05-14T00:34:44.880Z,22.63
2023-05-14T00:37:12.621Z,22.32
2023-05-14T00:39:40.416Z,22.71
2023-05-14T00:42:08.312Z,22.65
2023-05-14T00:44:36.813Z,22.64
2023-05-14T00:47:05.330Z,22.58
2023-05-14T00:49:35.320Z,22.61
2023-05-14T00:52:03.603Z,22.46
2023-05-14T00:54:31.868Z,22.27
2023-05-14T00:57:00.970Z,22.82
2023-05-14T00:59:28.898Z,22.71
2023-05-14T01:01:56.913Z,22.76
2023-05-14T01:04:25.115Z,22.88
2023-05-14T01:07:08.282Z,22.82
2023-05-14T01:09:43.682Z,22.84
2023-05-14T01:12:20.406Z,22.86
2023-05-14T01:14:55.849Z,23.03
2023-05-14T01:17:29.968Z,22.79
2023-05-14T01:19:58.771Z,22.92
2023-05-14T01:22:27.980Z,23.17
2023-05-14T01:24:56.063Z,23.43
2023-05-14T01:27:29.732Z,23.18
2023-05-14T01:30:04.161Z,23.19
2023-05-14T01:32:33.359Z,23.30
2023-05-14T01:35:02.377Z,23.38
2023-05-14T01:37:33.628Z,23.57
2023-05-14T01:40:02.250Z,23.43
2023-05-14T01:42:30.730Z,23.29
2023-05-14T01:44:59.085Z,23.46
2023-05-14T01:47:26.897Z,23.60
2023-05-14T01:49:54.683Z,23.62
2023-05-14T01:52:22.542Z,23.63
2023-05-14T01:54:51.731Z,23.58
2023-05-14T01:57:19.535Z,23.97
2023-05-14T01:59:47.349Z,23.82
2023-05-14T02:02:15.133Z,23.82
2023-05-14T02:04:42.983Z,23.82
2023-05-14T02:07:10.763Z,23.95
2023-05-14T02:09:38.707Z,23.67
2023-05-14T02:12:09.150Z,23.85
2023-05-14T02:14:37.017Z,24.13
2023-05-14T02:17:04.900Z,24.11
2023-05-14T02:19:32.734Z,24.34
2023-05-14T02:22:01.159Z,24.16
2023-05-14T02:24:29.038Z,24.18
2023-05-14T02:26:56.834Z,24.30
2023-05-14T02:29:26.273Z,24.26
2023-05-14T02:31:56.946Z,24.48
2023-05-14T02:34:24.984Z,24.38
2023-05-14T02:36:55.449Z,24.43
2023-05-14T02:39:23.858Z,24.50
2023-05-14T02:41:51.665Z,24.65
2023-05-14T02:44:19.445Z,24.61
2023-05-14T02:46:48.946Z,24.42
2023-05-14T02:49:16.760Z,24.96
2023-05-14T02:51:44.676Z,24.85
2023-05-14T02:54:12.506Z,24.98
2023-05-14T02:56:40.501Z,25.03
2023-05-14T02:59:08.259Z,25.06
2023-05-14T03:01:36.514Z,25.14
2023-05-14T03:04:06.533Z,25.00
2023-05-14T03:06:34.311Z,25.16
2023-05-14T03:09:02.087Z,25.23
2023-05-14T03:11:29.956Z,25.30
2023-05-14T03:13:57.851Z,25.19
2023-05-14T03:16:25.803Z,25.37
2023-05-14T03:18:53.734Z,25.49
2023-05-14T03:21:22.982Z,25.56
2023-05-14T03:23:50.887Z,25.78
2023-05-14T03:26:18.814Z,25.97
2023-05-14T03:28:46.865Z,25.70
2023-05-14T03:31:14.709Z,26.02
2023-05-14T03:33:43.536Z,26.01
2023-05-14T03:36:11.462Z,26.26
2023-05-14T03:38:40.721Z,26.19
2023-05-14T03:41:08.619Z,25.96
2023-05-14T03:43:36.674Z,26.36
2023-05-14T03:46:04.497Z,26.10
2023-05-14T03:48:32.679Z,26.68
2023-05-14T03:51:00.803Z,26.04
2023-05-14T03:53:28.917Z,26.25
2023-05-14T03:55:58.112Z,26.27
2023-05-14T03:58:28.642Z,26.92
2023-05-14T04:00:56.791Z,27.08
2023-05-14T04:03:25.079Z,26.79
2023-05-14T04:05:53.059Z,27.35
2023-05-14T04:08:20.932Z,26.51
2023-05-14T04:10:48.927Z,27.50
2023-05-14T04:13:18.207Z,27.64
2023-05-14T04:15:46.122Z,27.37
2023-05-14T04:18:14.109Z,27.58
2023-05-14T04:20:41.962Z,27.38
2023-05-14T04:23:09.761Z,27.71
2023-05-14T04:25:37.806Z,27.57
2023-05-14T04:28:06.003Z,28.15
2023-05-14T04:30:35.320Z,28.01
2023-05-14T04:33:04.154Z,27.99
2023-05-14T04:35:31.955Z,28.10
2023-05-14T04:38:00.818Z,28.65
2023-05-14T04:40:28.805Z,28.52
2023-05-14T04:42:57.116Z,28.52
2023-05-14T04:45:25.073Z,29.12
2023-05-14T04:47:55.201Z,29.30
2023-05-14T04:50:23.418Z,29.18
2023-05-14T04:52:51.408Z,29.51
2023-05-14T04:55:19.337Z,29.39
2023-05-14T04:57:47.093Z,29.80
2023-05-14T05:00:15.796Z,29.68
2023-05-14T05:02:43.824Z,30.06
2023-05-14T05:05:13.039Z,30.19
2023-05-14T05:07:40.874Z,30.34
2023-05-14T05:10:09.934Z,30.35
2023-05-14T05:12:37.816Z,30.31
2023-05-14T05:15:06.339Z,30.74
2023-05-14T05:17:34.434Z,30.97
2023-05-14T05:20:02.478Z,31.02
2023-05-14T05:22:31.933Z,30.87
2023-05-14T05:25:00.064Z,31.11
2023-05-14T05:27:28.472Z,31.44
2023-05-14T05:29:56.298Z,31.80
2023-05-14T05:32:24.717Z,31.58
2023-05-14T05:34:52.911Z,31.72
2023-05-14T05:37:20.850Z,31.88
2023-05-14T05:39:50.007Z,32.45
2023-05-14T05:42:17.840Z,32.06
2023-05-14T05:44:45.749Z,32.33
2023-05-14T05:47:13.700Z,32.64
2023-05-14T05:49:41.507Z,32.63
2023-05-14T05:52:10.344Z,32.59
2023-05-14T05:54:39.840Z,32.92
2023-05-14T05:57:09.089Z,33.07
2023-05-14T05:59:37.367Z,33.17
2023-05-14T06:02:06.397Z,33.35
2023-05-14T06:04:34.313Z,33.48
2023-05-14T06:07:06.144Z,33.67
2023-05-14T06:09:33.924Z,33.76
2023-05-14T06:12:01.870Z,33.88
2023-05-14T06:14:31.647Z,34.05
2023-05-14T06:16:59.843Z,34.17
2023-05-14T06:19:27.871Z,34.26
2023-05-14T06:21:56.078Z,34.34
2023-05-14T06:24:23.907Z,34.42
2023-05-14T06:26:51.701Z,34.51
2023-05-14T06:29:19.557Z,34.62
2023-05-14T06:31:48.775Z,34.56
2023-05-14T06:34:16.670Z,34.82
2023-05-14T06:36:44.572Z,34.84
2023-05-14T06:39:12.512Z,34.98
2023-05-14T06:41:40.348Z,35.24
2023-05-14T06:44:08.188Z,35.10
2023-05-14T06:46:36.082Z,35.38
2023-05-14T06:49:05.399Z,35.31
2023-05-14T06:51:33.330Z,35.43
2023-05-14T06:54:01.635Z,35.57
2023-05-14T06:56:29.394Z,35.64
2023-05-14T06:58:57.356Z,35.75
2023-05-14T07:01:25.098Z,35.93
2023-05-14T07:03:53.059Z,35.86
2023-05-14T07:06:22.485Z,35.83
2023-05-14T07:08:50.431Z,36.04
2023-05-14T07:11:18.279Z,35.80
2023-05-14T07:13:46.137Z,36.09
2023-05-14T07:16:14.062Z,36.31
2023-05-14T07:18:41.906Z,36.23
2023-05-14T07:21:09.807Z,36.22
2023-05-14T07:23:39.386Z,36.56
2023-05-14T07:26:07.734Z,36.45
2023-05-14T07:28:35.988Z,36.69
2023-05-14T07:31:05.091Z,36.69
2023-05-14T07:33:32.897Z,36.83
2023-05-14T07:36:00.783Z,36.52
2023-05-14T07:38:28.840Z,36.65
2023-05-14T07:40:58.516Z,36.61
2023-05-14T07:43:27.243Z,37.06
2023-05-14T07:45:55.633Z,36.80
2023-05-14T07:48:23.582Z,37.07
2023-05-14T07:50:51.655Z,36.88
2023-05-14T07:53:19.543Z,37.23
2023-05-14T07:55:48.466Z,36.99
2023-05-14T07:58:17.662Z,37.34
2023-05-14T08:00:45.983Z,37.32
2023-05-14T08:03:15.021Z,37.33
2023-05-14T08:05:43.630Z,37.07
2023-05-14T08:08:13.450Z,37.21
2023-05-14T08:10:41.856Z,37.29
2023-05-14T08:13:09.711Z,37.09
2023-05-14T08:15:38.807Z,37.27
2023-05-14T08:18:06.861Z,37.33
2023-05-14T08:20:34.804Z,37.27
2023-05-14T08:23:02.627Z,37.33
2023-05-14T08:25:30.648Z,37.36
2023-05-14T08:27:59.818Z,37.39
2023-05-14T08:30:28.135Z,37.43
2023-05-14T08:32:57.834Z,37.44
2023-05-14T08:35:25.852Z,37.56
2023-05-14T08:37:53.668Z,37.30
2023-05-14T08:40:22.156Z,37.45
2023-05-14T08:42:55.266Z,37.13
2023-05-14T08:45:28.043Z,37.25
2023-05-14T08:47:59.589Z,37.33
2023-05-14T08:50:28.064Z,37.40
2023-05-14T08:52:56.302Z,37.74
2023-05-14T08:55:26.088Z,37.53
2023-05-14T08:57:54.278Z,37.42
2023-05-14T09:00:23.270Z,37.44
2023-05-14T09:02:52.457Z,37.49
2023-05-14T09:05:23.410Z,37.41
2023-05-14T09:07:51.281Z,37.46
2023-05-14T09:10:21.075Z,37.31
2023-05-14T09:12:49.079Z,37.25
2023-05-14T09:15:17.115Z,37.17
2023-05-14T09:17:46.467Z,36.82
2023-05-14T09:20:14.534Z,37.03
2023-05-14T09:22:43.826Z,37.32
2023-05-14T09:25:13.248Z,37.26
2023-05-14T09:27:42.425Z,37.18
2023-05-14T09:30:12.028Z,36.82
2023-05-14T09:32:40.801Z,36.76
2023-05-14T09:35:14.727Z,36.87
2023-05-14T09:37:45.243Z,36.48
2023-05-14T09:40:14.348Z,36.93
2023-05-14T09:42:42.567Z,36.68
2023-05-14T09:45:11.575Z,36.40
2023-05-14T09:47:40.469Z,36.18
2023-05-14T09:50:09.251Z,36.39
2023-05-14T09:52:37.338Z,35.98
2023-05-14T09:55:08.033Z,36.03
2023-05-14T09:57:36.023Z,36.10
2023-05-14T10:00:04.478Z,35.95
2023-05-14T10:02:38.048Z,35.71
2023-05-14T10:05:08.202Z,35.60
2023-05-14T10:07:41.711Z,35.59
2023-05-14T10:10:16.499Z,35.12
2023-05-14T10:12:50.584Z,35.18
2023-05-14T10:15:24.096Z,34.79
2023-05-14T10:17:59.959Z,34.77
2023-05-14T10:20:28.792Z,34.58
2023-05-14T10:22:57.813Z,34.72
2023-05-14T10:25:27.519Z,34.66
2023-05-14T10:27:55.763Z,34.59
2023-05-14T10:30:24.276Z,34.40
2023-05-14T10:33:07.774Z,34.33
2023-05-14T10:35:58.265Z,34.30
2023-05-14T10:38:28.491Z,34.28
2023-05-14T10:41:03.413Z,33.79
2023-05-14T10:43:32.366Z,33.92
2023-05-14T10:46:01.533Z,33.58
2023-05-14T10:48:30.206Z,33.31
2023-05-14T10:50:58.795Z,33.56
2023-05-14T10:53:37.721Z,33.38
2023-05-14T10:56:08.417Z,33.18
2023-05-14T10:58:37.122Z,33.00
2023-05-14T11:01:06.586Z,32.87
2023-05-14T11:03:41.193Z,32.66
2023-05-14T11:06:09.687Z,32.44
2023-05-14T11:08:38.312Z,32.65
2023-05-14T11:11:08.010Z,32.39
2023-05-14T11:13:36.473Z,32.08
2023-05-14T11:16:19.006Z,31.79
2023-05-14T11:18:55.196Z,31.93
2023-05-14T11:21:23.559Z,31.90
2023-05-14T11:23:51.479Z,31.70
2023-05-14T11:26:21.833Z,31.54
2023-05-14T11:28:49.991Z,31.75
2023-05-14T11:31:17.983Z,31.54
2023-05-14T11:33:46.005Z,31.57
2023-05-14T11:36:14.695Z,31.47
2023-05-14T11:38:50.564Z,31.10
2023-05-14T11:41:21.602Z,31.11
2023-05-14T11:43:50.003Z,30.67
2023-05-14T11:46:19.138Z,30.47
2023-05-14T11:48:47.186Z,30.48
2023-05-14T11:51:15.019Z,30.14
2023-05-14T11:53:42.841Z,30.26
2023-05-14T11:56:11.383Z,30.39
2023-05-14T11:58:41.087Z,30.52
2023-05-14T12:01:14.577Z,30.27
2023-05-14T12:03:42.846Z,29.84
2023-05-14T12:06:11.162Z,30.13
2023-05-14T12:08:38.952Z,30.11
2023-05-14T12:11:07.669Z,29.97
2023-05-14T12:13:37.437Z,29.63
2023-05-14T12:16:09.927Z,29.72
2023-05-14T12:18:38.615Z,29.99
2023-05-14T12:21:08.925Z,29.58
2023-05-14T12:23:39.686Z,29.75
2023-05-14T12:26:09.907Z,29.76
2023-05-14T12:28:43.253Z,29.30
2023-05-14T12:31:12.809Z,29.26
2023-05-14T12:33:40.637Z,29.39
2023-05-14T12:38:41.308Z,29.03
2023-05-14T12:41:09.088Z,29.11
2023-05-14T12:43:37.118Z,28.88
2023-05-14T12:46:05.081Z,28.90
2023-05-14T12:48:34.483Z,28.76
2023-05-14T12:51:02.296Z,28.92
2023-05-14T12:53:30.180Z,28.66
2023-05-14T12:55:57.969Z,29.11
2023-05-14T12:58:25.972Z,28.99
2023-05-14T13:00:53.967Z,28.83
2023-05-14T13:03:21.952Z,28.63
2023-05-14T13:05:52.065Z,28.79
2023-05-14T13:08:21.632Z,28.94
2023-05-14T13:10:49.423Z,28.50
2023-05-14T13:13:17.271Z,29.11
2023-05-14T13:15:46.839Z,28.88
2023-05-14T13:18:15.065Z,28.51
2023-05-14T13:20:43.496Z,28.69
2023-05-14T13:23:12.747Z,28.35
2023-05-14T13:25:40.559Z,28.68
2023-05-14T13:28:09.289Z,28.46
2023-05-14T13:30:37.367Z,28.18
2023-05-14T13:33:05.728Z,28.31
2023-05-14T13:35:34.564Z,28.43
2023-05-14T13:38:02.379Z,28.00
2023-05-14T13:40:31.533Z,28.44
2023-05-14T13:42:59.593Z,28.11
2023-05-14T13:45:27.556Z,28.13
2023-05-14T13:47:56.714Z,27.91
2023-05-14T13:50:24.586Z,27.93
2023-05-14T13:52:52.319Z,27.93
2023-05-14T13:55:20.130Z,27.72
2023-05-14T13:57:49.316Z,27.75
2023-05-14T14:00:17.834Z,27.70
2023-05-14T14:02:45.784Z,27.86
2023-05-14T14:05:13.730Z,27.49
2023-05-14T14:07:41.846Z,27.61
2023-05-14T14:10:10.937Z,27.39
2023-05-14T14:12:38.819Z,26.96
2023-05-14T14:15:09.361Z,27.13
2023-05-14T14:17:39.022Z,26.98
2023-05-14T14:20:09.576Z,27.22
2023-05-14T14:22:38.127Z,26.89
2023-05-14T14:25:07.277Z,26.99
2023-05-14T14:27:38.525Z,26.87
2023-05-14T14:30:15.476Z,26.77
2023-05-14T14:32:44.797Z,26.47
2023-05-14T14:35:14.214Z,26.91
2023-05-14T14:37:42.992Z,26.76
2023-05-14T14:40:12.032Z,26.54
2023-05-14T14:42:39.847Z,26.56
2023-05-14T14:45:10.169Z,26.15
2023-05-14T14:47:37.969Z,26.17
2023-05-14T14:50:07.412Z,25.75
2023-05-14T14:52:36.124Z,25.97
2023-05-14T14:55:04.120Z,25.65
2023-05-14T14:57:31.963Z,25.68
2023-05-14T15:00:01.516Z,25.94
2023-05-14T15:02:31.789Z,25.95
2023-05-14T15:04:59.672Z,25.26
2023-05-14T15:07:32.168Z,25.38
2023-05-14T15:09:59.997Z,25.19
2023-05-14T15:12:28.046Z,25.65
2023-05-14T15:14:56.030Z,25.34
2023-05-14T15:17:24.238Z,25.16
2023-05-14T15:19:57.065Z,25.09
2023-05-14T15:22:25.379Z,25.30
2023-05-14T15:24:53.246Z,25.16
2023-05-14T15:27:21.132Z,25.15
2023-05-14T15:29:48.965Z,24.94
2023-05-14T15:32:17.817Z,24.80
2023-05-14T15:34:45.673Z,24.50
2023-05-14T15:37:14.851Z,24.89
2023-05-14T15:39:42.686Z,24.68
2023-05-14T15:42:10.477Z,24.51
2023-05-14T15:44:38.939Z,24.41
2023-05-14T15:47:07.427Z,24.51
2023-05-14T15:49:35.176Z,24.30
2023-05-14T15:52:03.392Z,24.51
2023-05-14T15:54:32.570Z,24.56
2023-05-14T15:57:00.989Z,24.24
2023-05-14T15:59:28.844Z,24.22
2023-05-14T16:01:56.737Z,24.08
2023-05-14T16:04:25.156Z,24.13
2023-05-14T16:06:52.962Z,23.96
2023-05-14T16:09:20.744Z,23.75
2023-05-14T16:11:49.881Z,24.06
2023-05-14T16:14:18.551Z,23.83
2023-05-14T16:16:46.383Z,23.60
2023-05-14T16:19:15.473Z,23.60
2023-05-14T16:21:43.338Z,23.90
2023-05-14T16:24:12.825Z,23.37
2023-05-14T16:26:41.693Z,23.56
2023-05-14T16:29:10.952Z,23.24
2023-05-14T16:31:39.192Z,23.64
2023-05-14T16:34:06.948Z,23.27
2023-05-14T16:36:34.856Z,23.43
2023-05-14T16:41:33.408Z,23.11
2023-05-14T16:44:01.247Z,22.92
2023-05-14T16:46:30.546Z,23.08
2023-05-14T16:48:58.537Z,22.82
2023-05-14T16:51:26.621Z,23.02
2023-05-14T16:53:55.696Z,22.65
2023-05-14T16:56:23.940Z,22.90
2023-05-14T16:58:51.956Z,22.86
2023-05-14T17:01:19.870Z,22.80
2023-05-14T17:03:49.791Z,22.65
2023-05-14T17:06:17.659Z,22.71
2023-05-14T17:08:45.467Z,22.67
2023-05-14T17:11:13.357Z,22.73
2023-05-14T17:13:41.230Z,22.68
2023-05-14T17:16:09.126Z,22.58
2023-05-14T17:18:38.047Z,22.46
2023-05-14T17:21:07.601Z,22.53
2023-05-14T17:23:35.723Z,22.43
2023-05-14T17:26:03.685Z,22.41
2023-05-14T17:28:31.478Z,22.49
2023-05-14T17:30:59.216Z,22.51
2023-05-14T17:33:27.375Z,22.43
2023-05-14T17:35:55.236Z,22.43
2023-05-14T17:38:25.621Z,22.35
2023-05-14T17:40:54.291Z,22.13
2023-05-14T17:43:22.097Z,22.30
2023-05-14T17:45:54.280Z,22.40
2023-05-14T17:48:23.104Z,22.40
2023-05-14T17:50:51.774Z,22.28
2023-05-14T17:53:19.756Z,22.23
2023-05-14T17:55:50.326Z,22.34
2023-05-14T17:58:18.274Z,22.24
2023-05-14T18:00:46.239Z,22.09
2023-05-14T18:03:14.760Z,22.19
2023-05-14T18:05:42.701Z,22.14
2023-05-14T18:08:10.618Z,22.10
2023-05-14T18:10:38.529Z,22.02
2023-05-14T18:13:07.695Z,22.06
2023-05-14T18:15:36.776Z,21.98
2023-05-14T18:18:04.823Z,22.12
2023-05-14T18:20:34.148Z,21.96
2023-05-14T18:23:03.346Z,22.02
2023-05-14T18:25:31.285Z,22.01
2023-05-14T18:27:59.181Z,22.02
2023-05-14T18:30:28.650Z,21.99
2023-05-14T18:32:56.434Z,22.16
2023-05-14T18:35:24.324Z,22.00
2023-05-14T18:37:52.391Z,22.01
2023-05-14T18:40:20.705Z,21.99
2023-05-14T18:42:48.622Z,21.73
2023-05-14T18:45:16.555Z,22.01
2023-05-14T18:47:45.991Z,21.92
2023-05-14T18:50:13.801Z,21.98
2023-05-14T18:52:41.665Z,21.92
2023-05-14T18:55:10.258Z,21.95
2023-05-14T18:57:38.181Z,22.09
2023-05-14T19:00:07.316Z,21.93
2023-05-14T19:02:35.680Z,21.81
2023-05-14T19:05:05.330Z,21.92
2023-05-14T19:07:33.232Z,21.92
2023-05-14T19:10:01.214Z,21.65
2023-05-14T19:12:29.026Z,21.84
2023-05-14T19:14:56.844Z,21.98
2023-05-14T19:17:25.221Z,21.70
2023-05-14T19:19:55.983Z,22.00
2023-05-14T19:22:25.713Z,21.87
2023-05-14T19:24:53.499Z,21.47
2023-05-14T19:27:21.280Z,21.51
2023-05-14T19:29:50.934Z,21.84
2023-05-14T19:32:18.814Z,21.47
2023-05-14T19:34:46.610Z,21.52
2023-05-14T19:37:14.477Z,21.49
2023-05-14T19:39:43.686Z,21.48
2023-05-14T19:42:11.461Z,21.85
2023-05-14T19:44:39.351Z,21.57
2023-05-14T19:47:07.655Z,21.72
2023-05-14T19:49:35.552Z,21.70
2023-05-14T19:52:03.477Z,21.60
2023-05-14T19:54:31.337Z,21.62
2023-05-14T19:57:00.536Z,21.59
2023-05-14T19:59:29.797Z,21.61
2023-05-14T20:01:58.104Z,21.62
2023-05-14T20:04:26.280Z,21.54
2023-05-14T20:06:54.126Z,21.56
2023-05-14T20:09:21.926Z,21.62
2023-05-14T20:11:49.726Z,21.70
2023-05-14T20:14:19.109Z,21.58
2023-05-14T20:16:48.986Z,21.78
2023-05-14T20:19:16.973Z,21.61
2023-05-14T20:21:44.781Z,21.33
2023-05-14T20:24:12.643Z,21.67
2023-05-14T20:26:41.037Z,21.33
2023-05-14T20:29:10.924Z,21.88
2023-05-14T20:31:41.398Z,21.76
2023-05-14T20:34:09.490Z,21.25
2023-05-14T20:36:37.461Z,21.60
2023-05-14T20:39:06.166Z,21.87
2023-05-14T20:41:33.964Z,21.36
2023-05-14T20:44:01.764Z,21.95
2023-05-14T20:46:29.731Z,21.25
2023-05-14T20:49:02.206Z,21.30
2023-05-14T20:51:30.025Z,21.50
2023-05-14T20:53:57.815Z,21.56
2023-05-14T20:56:26.399Z,21.05
2023-05-14T20:58:54.221Z,21.91
2023-05-14T21:01:22.671Z,21.34
2023-05-14T21:03:50.702Z,22.10
2023-05-14T21:06:20.032Z,21.47
2023-05-14T21:08:47.801Z,21.96
2023-05-14T21:11:15.627Z,21.75
2023-05-14T21:13:44.162Z,21.89
2023-05-14T21:16:12.832Z,21.87
2023-05-14T21:18:40.728Z,21.61
2023-05-14T21:21:08.582Z,21.53
2023-05-14T21:23:37.683Z,21.75
2023-05-14T21:26:05.772Z,21.31
2023-05-14T21:28:33.654Z,22.21
2023-05-14T21:31:01.475Z,21.83
2023-05-14T21:33:31.443Z,21.89
2023-05-14T21:35:59.382Z,21.93
2023-05-14T21:38:27.468Z,21.90
2023-05-14T21:40:56.655Z,22.36
2023-05-14T21:43:24.478Z,22.29
2023-05-14T21:45:52.275Z,21.94
2023-05-14T21:48:21.164Z,21.77
2023-05-14T21:50:49.271Z,21.81
2023-05-14T21:53:17.128Z,21.78
2023-05-14T21:55:44.997Z,21.82
2023-05-14T21:58:14.424Z,22.15
2023-05-14T22:00:42.307Z,22.24
2023-05-14T22:03:10.213Z,22.04
2023-05-14T22:05:38.182Z,22.13
2023-05-14T22:08:06.718Z,22.35
2023-05-14T22:10:36.035Z,22.41
2023-05-14T22:13:03.912Z,22.22
2023-05-14T22:15:33.099Z,22.20
2023-05-14T22:18:02.426Z,22.16
2023-05-14T22:20:30.236Z,22.33
2023-05-14T22:22:58.041Z,22.35
2023-05-14T22:25:26.290Z,22.31
2023-05-14T22:27:54.543Z,22.08
2023-05-14T22:30:22.564Z,22.55
2023-05-14T22:32:51.756Z,22.73
2023-05-14T22:35:19.696Z,22.40
2023-05-14T22:37:47.461Z,22.27
2023-05-14T22:40:15.334Z,22.37
2023-05-14T22:42:43.270Z,22.65
2023-05-14T22:45:11.518Z,22.61
2023-05-14T22:47:39.593Z,22.50
2023-05-14T22:50:11.595Z,22.45
2023-05-14T22:52:39.807Z,22.69
2023-05-14T22:55:08.944Z,22.47
2023-05-14T22:57:36.850Z,22.56
2023-05-14T23:00:05.604Z,22.61
2023-05-14T23:02:33.502Z,22.53
2023-05-14T23:05:01.399Z,22.54
2023-05-14T23:07:30.673Z,22.73
2023-05-14T23:09:58.533Z,22.92
2023-05-14T23:12:26.418Z,23.30
2023-05-14T23:14:59.140Z,22.71
2023-05-14T23:17:27.473Z,22.71
2023-05-14T23:19:55.479Z,22.61
2023-05-14T23:22:23.393Z,22.83
2023-05-14T23:24:52.568Z,22.56
2023-05-14T23:27:20.897Z,23.05
2023-05-14T23:29:48.808Z,23.14
2023-05-14T23:32:16.704Z,22.81
2023-05-14T23:34:44.495Z,23.17
2023-05-14T23:37:12.545Z,22.85
2023-05-14T23:39:40.469Z,22.80
2023-05-14T23:42:09.671Z,23.09
2023-05-14T23:44:37.610Z,22.89
2023-05-14T23:47:07.357Z,23.14
2023-05-14T23:49:36.035Z,23.25
2023-05-14T23:52:04.155Z,23.30
2023-05-14T23:54:31.966Z,23.87
2023-05-14T23:56:59.832Z,23.25
2023-05-14T23:59:29.142Z,23.23
